Time,TemperatureF,DewpointF,PressureIn,WindDirection,WindDirectionDegrees,WindSpeedMPH,WindSpeedGustMPH,Humidity,HourlyPrecipIn,Conditions,Clouds,dailyrainin,SoftwareType,DateUTC
2013-03-04 00:02:00,46.3,44.7,30.06,SE,126,0.0,1.0,94,0.00,,,0.00,Wunderground v.1.12,2013-03-04 08:02:00,
2013-03-04 00:08:00,46.2,44.6,30.06,SE,126,1.0,1.0,94,0.00,,,0.00,Wunderground v.1.12,2013-03-04 08:08:00,
2013-03-04 00:13:00,46.2,44.6,30.06,SE,126,0.0,1.0,94,0.00,,,0.00,Wunderground v.1.12,2013-03-04 08:13:00,
2013-03-04 00:19:00,46.2,44.6,30.06,SE,125,0.0,1.0,94,0.00,,,0.00,Wunderground v.1.12,2013-03-04 08:19:00,
2013-03-04 00:25:00,46.1,44.5,30.06,SE,126,0.0,0.0,94,0.00,,,0.00,Wunderground v.1.12,2013-03-04 08:25:00,
2013-03-04 00:30:00,46.1,44.5,30.06,East,94,2.0,2.0,94,0.00,,,0.00,Wunderground v.1.12,2013-03-04 08:30:00,
2013-03-04 00:36:00,46.0,44.4,30.06,ENE,78,0.0,1.0,94,0.00,,,0.00,Wunderground v.1.12,2013-03-04 08:36:00,
2013-03-04 00:41:00,45.9,44.3,30.06,ENE,78,0.0,0.0,94,0.00,,,0.00,Wunderground v.1.12,2013-03-04 08:41:00,
2013-03-04 00:46:00,45.9,44.3,30.06,ENE,78,0.0,0.0,94,0.00,,,0.00,Wunderground v.1.12,2013-03-04 08:46:00,
2013-03-04 00:51:00,45.9,44.3,30.06,ENE,78,0.0,0.0,94,0.00,,,0.00,Wunderground v.1.12,2013-03-04 08:51:00,
2013-03-04 00:56:00,45.9,44.3,30.06,ENE,78,0.0,0.0,94,0.00,,,0.00,Wunderground v.1.12,2013-03-04 08:56:00,
2013-03-04 01:02:00,45.8,44.2,30.07,ENE,78,0.0,0.0,94,0.00,,,0.00,Wunderground v.1.12,2013-03-04 09:02:00,
2013-03-04 01:07:00,45.7,44.1,30.07,ENE,78,0.0,0.0,94,0.00,,,0.00,Wunderground v.1.12,2013-03-04 09:07:00,
2013-03-04 01:12:00,45.7,44.4,30.07,ENE,78,1.0,1.0,95,0.00,,,0.00,Wunderground v.1.12,2013-03-04 09:12:00,
2013-03-04 01:18:00,45.6,44.3,30.07,ENE,78,0.0,0.0,95,0.00,,,0.00,Wunderground v.1.12,2013-03-04 09:18:00,
2013-03-04 01:23:00,45.6,44.3,30.07,ENE,78,0.0,0.0,95,0.00,,,0.00,Wunderground v.1.12,2013-03-04 09:23:00,
2013-03-04 01:29:00,45.6,44.3,30.07,ENE,78,0.0,0.0,95,0.00,,,0.00,Wunderground v.1.12,2013-03-04 09:29:00,
2013-03-04 01:34:00,45.7,44.4,30.07,ENE,78,0.0,0.0,95,0.00,,,0.00,Wunderground v.1.12,2013-03-04 09:34:00,
2013-03-04 01:39:00,45.7,44.4,30.07,ENE,78,0.0,0.0,95,0.00,,,0.00,Wunderground v.1.12,2013-03-04 09:39:00,
2013-03-04 01:44:00,45.7,44.4,30.07,ENE,78,0.0,0.0,95,0.00,,,0.00,Wunderground v.1.12,2013-03-04 09:44:00,
2013-03-04 01:50:00,45.8,44.4,30.07,ENE,78,0.0,0.0,95,0.00,,,0.00,Wunderground v.1.12,2013-03-04 09:50:00,
2013-03-04 01:55:00,45.8,44.4,30.07,ENE,78,0.0,0.0,95,0.00,,,0.00,Wunderground v.1.12,2013-03-04 09:55:00,
2013-03-04 02:00:00,45.7,44.4,30.08,ENE,78,0.0,0.0,95,0.00,,,0.00,Wunderground v.1.12,2013-03-04 10:00:00,
2013-03-04 02:06:00,45.7,44.4,30.08,ENE,78,0.0,0.0,95,0.00,,,0.00,Wunderground v.1.12,2013-03-04 10:06:00,
2013-03-04 02:11:00,45.7,44.4,30.08,East,98,0.0,0.0,95,0.00,,,0.00,Wunderground v.1.12,2013-03-04 10:11:00,
2013-03-04 02:16:00,45.6,44.3,30.07,East,98,0.0,0.0,95,0.00,,,0.00,Wunderground v.1.12,2013-03-04 10:16:00,
2013-03-04 02:21:00,45.6,44.3,30.07,East,98,0.0,0.0,95,0.00,,,0.00,Wunderground v.1.12,2013-03-04 10:21:00,
2013-03-04 02:26:00,45.6,44.3,30.07,East,98,0.0,0.0,95,0.00,,,0.00,Wunderground v.1.12,2013-03-04 10:26:00,
2013-03-04 02:31:00,45.6,44.3,30.07,East,98,0.0,0.0,95,0.00,,,0.00,Wunderground v.1.12,2013-03-04 10:31:00,
2013-03-04 02:36:00,45.5,44.2,30.07,East,98,0.0,1.0,95,0.00,,,0.00,Wunderground v.1.12,2013-03-04 10:36:00,
2013-03-04 02:41:00,45.5,44.2,30.07,East,98,0.0,1.0,95,0.00,,,0.00,Wunderground v.1.12,2013-03-04 10:41:00,
2013-03-04 02:46:00,45.5,44.2,30.07,East,98,0.0,0.0,95,0.00,,,0.00,Wunderground v.1.12,2013-03-04 10:46:00,
2013-03-04 02:51:00,45.5,44.2,30.07,East,98,1.0,1.0,95,0.00,,,0.00,Wunderground v.1.12,2013-03-04 10:51:00,
2013-03-04 02:56:00,45.5,44.2,30.07,East,98,0.0,0.0,95,0.00,,,0.00,Wunderground v.1.12,2013-03-04 10:56:00,
2013-03-04 03:02:00,45.4,44.1,30.06,East,98,0.0,1.0,95,0.00,,,0.00,Wunderground v.1.12,2013-03-04 11:02:00,
2013-03-04 03:07:00,45.4,44.1,30.06,East,98,1.0,1.0,95,0.00,,,0.00,Wunderground v.1.12,2013-03-04 11:07:00,
2013-03-04 03:12:00,45.4,44.1,30.06,East,100,2.0,2.0,95,0.00,,,0.00,Wunderground v.1.12,2013-03-04 11:12:00,
2013-03-04 03:17:00,45.4,44.1,30.06,East,101,0.0,1.0,95,0.00,,,0.00,Wunderground v.1.12,2013-03-04 11:17:00,
2013-03-04 03:22:00,45.4,44.1,30.06,East,101,0.0,0.0,95,0.00,,,0.00,Wunderground v.1.12,2013-03-04 11:22:00,
2013-03-04 03:27:00,45.3,44.0,30.06,ESE,116,0.0,2.0,95,0.00,,,0.00,Wunderground v.1.12,2013-03-04 11:27:00,
2013-03-04 03:32:00,45.3,44.0,30.06,ESE,117,0.0,0.0,95,0.00,,,0.00,Wunderground v.1.12,2013-03-04 11:32:00,
2013-03-04 03:37:00,45.2,43.6,30.06,ESE,111,0.0,1.0,94,0.00,,,0.00,Wunderground v.1.12,2013-03-04 11:37:00,
2013-03-04 03:43:00,45.1,43.5,30.06,East,90,2.0,2.0,94,0.00,,,0.00,Wunderground v.1.12,2013-03-04 11:43:00,
2013-03-04 03:48:00,45.1,43.5,30.06,ESE,115,0.0,1.0,94,0.00,,,0.00,Wunderground v.1.12,2013-03-04 11:48:00,
2013-03-04 03:53:00,44.9,43.3,30.06,East,96,1.0,1.0,94,0.00,,,0.00,Wunderground v.1.12,2013-03-04 11:53:00,
2013-03-04 03:58:00,44.8,43.2,30.06,East,91,0.0,3.0,94,0.00,,,0.00,Wunderground v.1.12,2013-03-04 11:58:00,
2013-03-04 04:04:00,44.7,43.4,30.07,East,91,0.0,1.0,95,0.00,,,0.00,Wunderground v.1.12,2013-03-04 12:04:00,
2013-03-04 04:09:00,44.7,43.4,30.07,East,91,0.0,1.0,95,0.00,,,0.00,Wunderground v.1.12,2013-03-04 12:09:00,
2013-03-04 04:14:00,44.7,43.4,30.07,East,92,1.0,1.0,95,0.00,,,0.00,Wunderground v.1.12,2013-03-04 12:14:00,
2013-03-04 04:19:00,44.7,43.4,30.07,East,94,0.0,1.0,95,0.00,,,0.00,Wunderground v.1.12,2013-03-04 12:19:00,
2013-03-04 04:24:00,44.7,43.4,30.07,East,94,0.0,1.0,95,0.00,,,0.00,Wunderground v.1.12,2013-03-04 12:24:00,
2013-03-04 04:29:00,44.7,43.4,30.07,East,94,0.0,0.0,95,0.00,,,0.00,Wunderground v.1.12,2013-03-04 12:29:00,
2013-03-04 04:34:00,44.7,43.4,30.07,East,94,0.0,0.0,95,0.00,,,0.00,Wunderground v.1.12,2013-03-04 12:34:00,
2013-03-04 04:39:00,44.7,43.4,30.07,East,94,0.0,0.0,95,0.00,,,0.00,Wunderground v.1.12,2013-03-04 12:39:00,
2013-03-04 04:44:00,44.7,43.4,30.07,East,94,0.0,0.0,95,0.00,,,0.00,Wunderground v.1.12,2013-03-04 12:44:00,
2013-03-04 04:49:00,44.7,43.4,30.08,East,94,0.0,1.0,95,0.00,,,0.00,Wunderground v.1.12,2013-03-04 12:49:00,
2013-03-04 04:54:00,44.7,43.4,30.08,East,94,0.0,0.0,95,0.00,,,0.00,Wunderground v.1.12,2013-03-04 12:54:00,
2013-03-04 05:00:00,44.6,43.3,30.08,East,94,0.0,0.0,95,0.00,,,0.00,Wunderground v.1.12,2013-03-04 13:00:00,
2013-03-04 05:05:00,44.7,43.4,30.08,East,94,0.0,0.0,95,0.00,,,0.00,Wunderground v.1.12,2013-03-04 13:05:00,
2013-03-04 05:10:00,44.6,43.3,30.08,East,94,0.0,1.0,95,0.00,,,0.00,Wunderground v.1.12,2013-03-04 13:10:00,
2013-03-04 05:15:00,44.6,43.3,30.08,East,94,0.0,0.0,95,0.00,,,0.00,Wunderground v.1.12,2013-03-04 13:15:00,
2013-03-04 05:21:00,44.6,43.3,30.08,East,94,0.0,1.0,95,0.00,,,0.00,Wunderground v.1.12,2013-03-04 13:21:00,
2013-03-04 05:26:00,44.6,43.3,30.08,East,94,0.0,0.0,95,0.00,,,0.00,Wunderground v.1.12,2013-03-04 13:26:00,
2013-03-04 05:31:00,44.7,43.4,30.08,East,94,0.0,0.0,95,0.00,,,0.00,Wunderground v.1.12,2013-03-04 13:31:00,
2013-03-04 05:36:00,44.7,43.4,30.08,East,94,0.0,0.0,95,0.00,,,0.00,Wunderground v.1.12,2013-03-04 13:36:00,
2013-03-04 05:41:00,44.7,43.4,30.08,East,94,0.0,0.0,95,0.00,,,0.00,Wunderground v.1.12,2013-03-04 13:41:00,
2013-03-04 05:46:00,44.7,43.4,30.09,East,94,0.0,0.0,95,0.00,,,0.00,Wunderground v.1.12,2013-03-04 13:46:00,
2013-03-04 05:51:00,44.7,43.4,30.09,East,94,0.0,1.0,95,0.00,,,0.00,Wunderground v.1.12,2013-03-04 13:51:00,
2013-03-04 05:56:00,44.6,43.3,30.09,East,94,1.0,1.0,95,0.00,,,0.00,Wunderground v.1.12,2013-03-04 13:56:00,
2013-03-04 06:01:00,44.5,43.2,30.09,East,94,0.0,1.0,95,0.00,,,0.00,Wunderground v.1.12,2013-03-04 14:01:00,
2013-03-04 06:06:00,44.5,43.2,30.09,East,94,0.0,1.0,95,0.00,,,0.00,Wunderground v.1.12,2013-03-04 14:06:00,
2013-03-04 06:12:00,44.4,43.1,30.09,East,94,0.0,0.0,95,0.00,,,0.00,Wunderground v.1.12,2013-03-04 14:12:00,
2013-03-04 06:17:00,44.4,43.1,30.09,East,95,0.0,1.0,95,0.00,,,0.00,Wunderground v.1.12,2013-03-04 14:17:00,
2013-03-04 06:22:00,44.3,43.0,30.09,East,95,0.0,0.0,95,0.00,,,0.00,Wunderground v.1.12,2013-03-04 14:22:00,
2013-03-04 06:27:00,44.3,43.0,30.09,East,95,0.0,1.0,95,0.00,,,0.00,Wunderground v.1.12,2013-03-04 14:27:00,
2013-03-04 06:33:00,44.2,42.9,30.09,East,96,0.0,0.0,95,0.00,,,0.00,Wunderground v.1.12,2013-03-04 14:33:00,
2013-03-04 06:38:00,44.1,42.8,30.09,East,96,1.0,1.0,95,0.00,,,0.00,Wunderground v.1.12,2013-03-04 14:38:00,
2013-03-04 06:43:00,44.1,42.8,30.09,East,96,0.0,0.0,95,0.00,,,0.00,Wunderground v.1.12,2013-03-04 14:43:00,
2013-03-04 06:48:00,44.2,43.1,30.09,East,96,0.0,0.0,96,0.00,,,0.00,Wunderground v.1.12,2013-03-04 14:48:00,
2013-03-04 06:53:00,44.2,42.9,30.09,East,96,0.0,0.0,95,0.00,,,0.00,Wunderground v.1.12,2013-03-04 14:53:00,
2013-03-04 06:58:00,44.2,43.1,30.09,East,97,0.0,0.0,96,0.00,,,0.00,Wunderground v.1.12,2013-03-04 14:58:00,
2013-03-04 07:03:00,44.3,43.2,30.09,East,96,0.0,0.0,96,0.00,,,0.00,Wunderground v.1.12,2013-03-04 15:03:00,
2013-03-04 07:08:00,44.3,43.2,30.09,East,95,0.0,0.0,96,0.00,,,0.00,Wunderground v.1.12,2013-03-04 15:08:00,
2013-03-04 07:14:00,44.3,43.2,30.09,East,96,0.0,1.0,96,0.00,,,0.00,Wunderground v.1.12,2013-03-04 15:14:00,
2013-03-04 07:19:00,44.3,43.2,30.10,East,95,0.0,0.0,96,0.00,,,0.00,Wunderground v.1.12,2013-03-04 15:19:00,
2013-03-04 07:24:00,44.4,43.3,30.10,East,95,0.0,0.0,96,0.00,,,0.00,Wunderground v.1.12,2013-03-04 15:24:00,
2013-03-04 07:29:00,44.5,43.4,30.10,East,96,1.0,1.0,96,0.00,,,0.00,Wunderground v.1.12,2013-03-04 15:29:00,
2013-03-04 07:34:00,44.5,43.4,30.11,ESE,105,0.0,1.0,96,0.00,,,0.00,Wunderground v.1.12,2013-03-04 15:34:00,
2013-03-04 07:39:00,44.5,43.4,30.11,ESE,105,0.0,1.0,96,0.00,,,0.00,Wunderground v.1.12,2013-03-04 15:39:00,
2013-03-04 07:44:00,44.4,43.1,30.11,ESE,105,0.0,0.0,95,0.00,,,0.00,Wunderground v.1.12,2013-03-04 15:44:00,
2013-03-04 07:49:00,44.5,43.4,30.11,ESE,105,0.0,1.0,96,0.00,,,0.00,Wunderground v.1.12,2013-03-04 15:49:00,
2013-03-04 07:54:00,44.5,43.2,30.11,ESE,105,0.0,1.0,95,0.00,,,0.00,Wunderground v.1.12,2013-03-04 15:54:00,
2013-03-04 07:59:00,44.5,43.2,30.11,ESE,107,0.0,1.0,95,0.00,,,0.00,Wunderground v.1.12,2013-03-04 15:59:00,
2013-03-04 08:04:00,44.5,43.2,30.11,South,182,2.0,2.0,95,0.00,,,0.00,Wunderground v.1.12,2013-03-04 16:04:00,
2013-03-04 08:10:00,44.4,43.1,30.11,South,190,0.0,1.0,95,0.00,,,0.00,Wunderground v.1.12,2013-03-04 16:10:00,
2013-03-04 08:15:00,44.5,43.2,30.11,SE,140,0.0,1.0,95,0.00,,,0.00,Wunderground v.1.12,2013-03-04 16:15:00,
2013-03-04 08:20:00,44.5,43.2,30.13,SE,140,0.0,0.0,95,0.00,,,0.00,Wunderground v.1.12,2013-03-04 16:20:00,
2013-03-04 08:25:00,44.6,43.3,30.13,SE,140,0.0,1.0,95,0.00,,,0.00,Wunderground v.1.12,2013-03-04 16:25:00,
2013-03-04 08:30:00,44.7,43.4,30.13,SE,140,0.0,1.0,95,0.00,,,0.00,Wunderground v.1.12,2013-03-04 16:30:00,
2013-03-04 08:35:00,44.8,43.5,30.13,SE,140,1.0,1.0,95,0.00,,,0.00,Wunderground v.1.12,2013-03-04 16:35:00,
2013-03-04 08:40:00,44.9,43.6,30.13,SE,140,0.0,0.0,95,0.00,,,0.00,Wunderground v.1.12,2013-03-04 16:40:00,
2013-03-04 08:45:00,45.2,43.9,30.13,SE,141,0.0,0.0,95,0.00,,,0.00,Wunderground v.1.12,2013-03-04 16:45:00,
2013-03-04 08:51:00,45.2,43.6,30.13,SSE,153,0.0,1.0,94,0.00,,,0.00,Wunderground v.1.12,2013-03-04 16:51:00,
2013-03-04 08:56:00,45.1,43.5,30.13,SSE,154,0.0,0.0,94,0.00,,,0.00,Wunderground v.1.12,2013-03-04 16:56:00,
2013-03-04 09:01:00,45.2,43.6,30.13,SSE,153,1.0,1.0,94,0.00,,,0.00,Wunderground v.1.12,2013-03-04 17:01:00,
2013-03-04 09:06:00,45.2,43.6,30.13,SE,146,1.0,1.0,94,0.00,,,0.00,Wunderground v.1.12,2013-03-04 17:06:00,
2013-03-04 09:11:00,45.3,43.7,30.13,SSE,148,0.0,1.0,94,0.00,,,0.00,Wunderground v.1.12,2013-03-04 17:11:00,
2013-03-04 09:16:00,45.4,43.8,30.13,SSE,153,1.0,1.0,94,0.00,,,0.00,Wunderground v.1.12,2013-03-04 17:16:00,
2013-03-04 09:21:00,45.5,43.9,30.13,SSW,199,0.0,0.0,94,0.00,,,0.00,Wunderground v.1.12,2013-03-04 17:21:00,
2013-03-04 09:26:00,45.6,43.7,30.13,SE,141,0.0,1.0,93,0.00,,,0.00,Wunderground v.1.12,2013-03-04 17:26:00,
2013-03-04 09:31:00,45.7,43.8,30.13,SE,140,0.0,0.0,93,0.00,,,0.00,Wunderground v.1.12,2013-03-04 17:31:00,
2013-03-04 09:36:00,45.8,43.9,30.13,SE,140,1.0,1.0,93,0.00,,,0.00,Wunderground v.1.12,2013-03-04 17:36:00,
2013-03-04 09:41:00,45.8,43.9,30.13,SE,136,0.0,0.0,93,0.00,,,0.00,Wunderground v.1.12,2013-03-04 17:41:00,
2013-03-04 09:46:00,45.8,43.9,30.13,ESE,118,1.0,2.0,93,0.00,,,0.00,Wunderground v.1.12,2013-03-04 17:46:00,
2013-03-04 09:51:00,45.9,44.0,30.13,ESE,118,0.0,0.0,93,0.00,,,0.00,Wunderground v.1.12,2013-03-04 17:51:00,
2013-03-04 09:56:00,46.1,44.2,30.13,ESE,118,0.0,1.0,93,0.00,,,0.00,Wunderground v.1.12,2013-03-04 17:56:00,
2013-03-04 10:01:00,46.3,44.4,30.13,ESE,118,1.0,1.0,93,0.00,,,0.00,Wunderground v.1.12,2013-03-04 18:01:00,
2013-03-04 10:06:00,46.3,44.4,30.13,WNW,294,1.0,3.0,93,0.00,,,0.00,Wunderground v.1.12,2013-03-04 18:06:00,
2013-03-04 10:11:00,46.5,44.6,30.13,WNW,294,0.0,1.0,93,0.00,,,0.00,Wunderground v.1.12,2013-03-04 18:11:00,
2013-03-04 10:17:00,46.7,44.8,30.13,WSW,252,4.0,4.0,93,0.00,,,0.00,Wunderground v.1.12,2013-03-04 18:17:00,
2013-03-04 10:22:00,46.7,44.5,30.13,SSW,206,0.0,1.0,92,0.00,,,0.00,Wunderground v.1.12,2013-03-04 18:22:00,
2013-03-04 10:27:00,46.8,44.6,30.13,South,190,0.0,1.0,92,0.00,,,0.00,Wunderground v.1.12,2013-03-04 18:27:00,
2013-03-04 10:29:00,46.9,44.7,30.13,South,190,0.0,1.0,92,0.00,,,0.00,Wunderground v.1.12,2013-03-04 18:29:00,
2013-03-04 10:34:00,47.2,45.0,30.13,SW,214,1.0,1.0,92,0.00,,,0.00,Wunderground v.1.12,2013-03-04 18:34:00,
2013-03-04 10:39:00,47.4,45.2,30.13,SW,214,0.0,1.0,92,0.00,,,0.00,Wunderground v.1.12,2013-03-04 18:39:00,
2013-03-04 10:44:00,47.6,45.1,30.13,SW,214,0.0,1.0,91,0.00,,,0.00,Wunderground v.1.12,2013-03-04 18:44:00,
2013-03-04 10:49:00,47.6,44.8,30.13,ENE,63,2.0,2.0,90,0.00,,,0.00,Wunderground v.1.12,2013-03-04 18:49:00,
2013-03-04 10:54:00,47.5,45.0,30.13,NE,39,0.0,2.0,91,0.00,,,0.00,Wunderground v.1.12,2013-03-04 18:54:00,
2013-03-04 11:00:00,47.9,45.4,30.13,NE,38,0.0,1.0,91,0.00,,,0.00,Wunderground v.1.12,2013-03-04 19:00:00,
2013-03-04 11:05:00,47.9,45.1,30.13,NNE,32,2.0,2.0,90,0.00,,,0.00,Wunderground v.1.12,2013-03-04 19:05:00,
2013-03-04 11:10:00,47.6,44.8,30.13,NW,304,0.0,3.0,90,0.00,,,0.00,Wunderground v.1.12,2013-03-04 19:10:00,
2013-03-04 11:15:00,47.6,44.8,30.13,ESE,121,2.0,2.0,90,0.00,,,0.00,Wunderground v.1.12,2013-03-04 19:15:00,
2013-03-04 11:20:00,47.6,44.8,30.13,SE,138,1.0,1.0,90,0.00,,,0.00,Wunderground v.1.12,2013-03-04 19:20:00,
2013-03-04 11:25:00,47.8,45.0,30.13,ESE,108,0.0,1.0,90,0.00,,,0.00,Wunderground v.1.12,2013-03-04 19:25:00,
2013-03-04 11:30:00,48.1,45.0,30.13,ESE,106,0.0,0.0,89,0.00,,,0.00,Wunderground v.1.12,2013-03-04 19:30:00,
2013-03-04 11:35:00,48.2,45.1,30.13,ESE,102,0.0,1.0,89,0.00,,,0.00,Wunderground v.1.12,2013-03-04 19:35:00,
2013-03-04 11:40:00,48.4,45.3,30.13,ESE,103,0.0,1.0,89,0.00,,,0.00,Wunderground v.1.12,2013-03-04 19:40:00,
2013-03-04 11:45:00,48.7,45.6,30.13,SE,127,1.0,1.0,89,0.00,,,0.00,Wunderground v.1.12,2013-03-04 19:45:00,
2013-03-04 11:50:00,48.7,45.3,30.13,WSW,252,2.0,2.0,88,0.00,,,0.00,Wunderground v.1.12,2013-03-04 19:50:00,
2013-03-04 11:55:00,48.4,45.3,30.13,WSW,248,1.0,2.0,89,0.00,,,0.00,Wunderground v.1.12,2013-03-04 19:55:00,
2013-03-04 12:01:00,48.3,45.2,30.13,WSW,252,2.0,2.0,89,0.00,,,0.00,Wunderground v.1.12,2013-03-04 20:01:00,
2013-03-04 12:06:00,48.4,45.0,30.13,West,261,0.0,2.0,88,0.00,,,0.00,Wunderground v.1.12,2013-03-04 20:06:00,
2013-03-04 12:11:00,48.4,45.3,30.13,West,272,1.0,2.0,89,0.00,,,0.00,Wunderground v.1.12,2013-03-04 20:11:00,
2013-03-04 12:16:00,48.8,45.7,30.11,West,270,2.0,2.0,89,0.00,,,0.00,Wunderground v.1.12,2013-03-04 20:16:00,
2013-03-04 12:21:00,49.1,45.7,30.11,WNW,299,3.0,6.0,88,0.00,,,0.00,Wunderground v.1.12,2013-03-04 20:21:00,
2013-03-04 12:26:00,49.0,45.6,30.11,WNW,298,4.0,4.0,88,0.00,,,0.00,Wunderground v.1.12,2013-03-04 20:26:00,
2013-03-04 12:31:00,48.9,45.5,30.10,NW,306,3.0,5.0,88,0.00,,,0.00,Wunderground v.1.12,2013-03-04 20:31:00,
2013-03-04 12:36:00,48.8,45.4,30.10,WNW,297,3.0,4.0,88,0.00,,,0.00,Wunderground v.1.12,2013-03-04 20:36:00,
2013-03-04 12:41:00,48.9,45.5,30.10,NE,38,4.0,6.0,88,0.00,,,0.00,Wunderground v.1.12,2013-03-04 20:41:00,
2013-03-04 12:47:00,49.1,45.7,30.10,NE,39,1.0,3.0,88,0.00,,,0.00,Wunderground v.1.12,2013-03-04 20:47:00,
2013-03-04 12:52:00,49.2,45.5,30.10,NW,311,4.0,5.0,87,0.00,,,0.00,Wunderground v.1.12,2013-03-04 20:52:00,
2013-03-04 12:57:00,49.3,45.6,30.10,WSW,249,2.0,4.0,87,0.00,,,0.00,Wunderground v.1.12,2013-03-04 20:57:00,
2013-03-04 13:02:00,49.6,45.6,30.09,NNW,348,1.0,4.0,86,0.00,,,0.00,Wunderground v.1.12,2013-03-04 21:02:00,
2013-03-04 13:07:00,49.8,45.8,30.09,NW,315,1.0,2.0,86,0.00,,,0.00,Wunderground v.1.12,2013-03-04 21:07:00,
2013-03-04 13:12:00,50.1,45.8,30.09,NW,311,3.0,6.0,85,0.00,,,0.00,Wunderground v.1.12,2013-03-04 21:12:00,
2013-03-04 13:17:00,50.3,46.0,30.09,WNW,290,5.0,6.0,85,0.00,,,0.00,Wunderground v.1.12,2013-03-04 21:17:00,
2013-03-04 13:22:00,50.3,45.6,30.09,NE,54,0.0,3.0,84,0.00,,,0.00,Wunderground v.1.12,2013-03-04 21:22:00,
2013-03-04 13:27:00,50.6,45.9,30.09,NE,42,3.0,4.0,84,0.00,,,0.00,Wunderground v.1.12,2013-03-04 21:27:00,
2013-03-04 13:32:00,51.0,46.0,30.09,NE,51,1.0,5.0,83,0.00,,,0.00,Wunderground v.1.12,2013-03-04 21:32:00,
2013-03-04 13:37:00,51.1,46.4,30.09,ENE,59,1.0,3.0,84,0.00,,,0.00,Wunderground v.1.12,2013-03-04 21:37:00,
2013-03-04 13:42:00,51.5,46.5,30.09,NNW,335,2.0,3.0,83,0.00,,,0.00,Wunderground v.1.12,2013-03-04 21:42:00,
2013-03-04 13:48:00,52.0,46.7,30.09,WNW,283,4.0,4.0,82,0.00,,,0.00,Wunderground v.1.12,2013-03-04 21:48:00,
2013-03-04 13:53:00,51.9,46.3,30.09,WNW,295,4.0,7.0,81,0.00,,,0.00,Wunderground v.1.12,2013-03-04 21:53:00,
2013-03-04 13:58:00,51.4,46.1,30.09,NW,323,1.0,5.0,82,0.00,,,0.00,Wunderground v.1.12,2013-03-04 21:58:00,
2013-03-04 14:03:00,51.4,46.1,30.08,West,277,5.0,7.0,82,0.00,,,0.00,Wunderground v.1.12,2013-03-04 22:03:00,
2013-03-04 14:08:00,51.4,46.4,30.08,West,270,1.0,6.0,83,0.00,,,0.00,Wunderground v.1.12,2013-03-04 22:08:00,
2013-03-04 14:14:00,51.8,46.5,30.08,WSW,254,3.0,9.0,82,0.00,,,0.00,Wunderground v.1.12,2013-03-04 22:14:00,
2013-03-04 14:19:00,51.6,46.3,30.08,WSW,248,4.0,7.0,82,0.00,,,0.00,Wunderground v.1.12,2013-03-04 22:19:00,
2013-03-04 14:24:00,51.6,46.3,30.08,WSW,249,2.0,5.0,82,0.00,,,0.00,Wunderground v.1.12,2013-03-04 22:24:00,
2013-03-04 14:29:00,52.0,46.7,30.08,West,268,3.0,6.0,82,0.00,,,0.00,Wunderground v.1.12,2013-03-04 22:29:00,
2013-03-04 14:34:00,52.6,46.9,30.08,WSW,250,3.0,5.0,81,0.00,,,0.00,Wunderground v.1.12,2013-03-04 22:34:00,
2013-03-04 14:39:00,52.7,47.0,30.08,WNW,284,4.0,7.0,81,0.00,,,0.00,Wunderground v.1.12,2013-03-04 22:39:00,
2013-03-04 14:44:00,53.1,47.4,30.08,West,261,3.0,4.0,81,0.00,,,0.00,Wunderground v.1.12,2013-03-04 22:44:00,
2013-03-04 14:49:00,53.4,47.7,30.07,West,265,4.0,4.0,81,0.00,,,0.00,Wunderground v.1.12,2013-03-04 22:49:00,
2013-03-04 14:55:00,53.4,46.7,30.07,WSW,241,0.0,3.0,78,0.00,,,0.00,Wunderground v.1.12,2013-03-04 22:55:00,
2013-03-04 15:00:00,53.7,47.3,30.07,WNW,285,1.0,2.0,79,0.00,,,0.00,Wunderground v.1.12,2013-03-04 23:00:00,
2013-03-04 15:05:00,54.0,47.6,30.06,WNW,301,0.0,2.0,79,0.00,,,0.00,Wunderground v.1.12,2013-03-04 23:05:00,
2013-03-04 15:10:00,54.3,47.6,30.06,ENE,59,1.0,2.0,78,0.00,,,0.00,Wunderground v.1.12,2013-03-04 23:10:00,
2013-03-04 15:16:00,54.7,47.6,30.06,WSW,242,2.0,4.0,77,0.00,,,0.00,Wunderground v.1.12,2013-03-04 23:16:00,
2013-03-04 15:21:00,54.7,47.6,30.06,WNW,295,2.0,2.0,77,0.00,,,0.00,Wunderground v.1.12,2013-03-04 23:21:00,
2013-03-04 15:26:00,54.8,47.4,30.06,NW,318,1.0,3.0,76,0.00,,,0.00,Wunderground v.1.12,2013-03-04 23:26:00,
2013-03-04 15:31:00,55.0,47.6,30.06,West,269,1.0,3.0,76,0.00,,,0.00,Wunderground v.1.12,2013-03-04 23:31:00,
2013-03-04 15:36:00,55.3,47.9,30.06,NNE,30,2.0,3.0,76,0.00,,,0.00,Wunderground v.1.12,2013-03-04 23:36:00,
2013-03-04 15:41:00,55.3,47.5,30.06,NNW,328,1.0,2.0,75,0.00,,,0.00,Wunderground v.1.12,2013-03-04 23:41:00,
2013-03-04 15:46:00,55.4,48.0,30.05,West,276,2.0,3.0,76,0.00,,,0.00,Wunderground v.1.12,2013-03-04 23:46:00,
2013-03-04 15:51:00,55.5,48.1,30.05,NW,325,2.0,4.0,76,0.00,,,0.00,Wunderground v.1.12,2013-03-04 23:51:00,
2013-03-04 15:56:00,55.5,47.3,30.05,NE,38,1.0,3.0,74,0.00,,,0.00,Wunderground v.1.12,2013-03-04 23:56:00,
2013-03-04 16:01:00,55.6,47.4,30.05,West,264,4.0,6.0,74,0.00,,,0.00,Wunderground v.1.12,2013-03-05 00:01:00,
2013-03-04 16:07:00,55.6,47.4,30.05,WNW,290,2.0,5.0,74,0.00,,,0.00,Wunderground v.1.12,2013-03-05 00:07:00,
2013-03-04 16:12:00,55.7,47.2,30.05,West,267,1.0,3.0,73,0.00,,,0.00,Wunderground v.1.12,2013-03-05 00:12:00,
2013-03-04 16:17:00,55.7,47.5,30.05,WNW,291,6.0,6.0,74,0.00,,,0.00,Wunderground v.1.12,2013-03-05 00:17:00,
2013-03-04 16:22:00,55.8,47.6,30.05,NW,321,2.0,6.0,74,0.00,,,0.00,Wunderground v.1.12,2013-03-05 00:22:00,
2013-03-04 16:27:00,56.0,47.5,30.05,WNW,288,3.0,5.0,73,0.00,,,0.00,Wunderground v.1.12,2013-03-05 00:27:00,
2013-03-04 16:32:00,56.0,47.5,30.04,West,269,4.0,7.0,73,0.00,,,0.00,Wunderground v.1.12,2013-03-05 00:32:00,
2013-03-04 16:37:00,55.9,47.4,30.04,WNW,292,5.0,6.0,73,0.00,,,0.00,Wunderground v.1.12,2013-03-05 00:37:00,
2013-03-04 16:42:00,55.9,47.4,30.04,NW,305,3.0,5.0,73,0.00,,,0.00,Wunderground v.1.12,2013-03-05 00:42:00,
2013-03-04 16:47:00,55.9,47.4,30.03,WNW,282,2.0,4.0,73,0.00,,,0.00,Wunderground v.1.12,2013-03-05 00:47:00,
2013-03-04 16:52:00,56.0,47.5,30.03,WNW,289,3.0,4.0,73,0.00,,,0.00,Wunderground v.1.12,2013-03-05 00:52:00,
2013-03-04 16:57:00,55.9,47.0,30.03,WNW,290,4.0,4.0,72,0.00,,,0.00,Wunderground v.1.12,2013-03-05 00:57:00,
2013-03-04 17:02:00,55.8,46.9,30.03,WNW,298,2.0,6.0,72,0.00,,,0.00,Wunderground v.1.12,2013-03-05 01:02:00,
2013-03-04 17:08:00,55.6,46.7,30.03,NNE,26,3.0,4.0,72,0.00,,,0.00,Wunderground v.1.12,2013-03-05 01:08:00,
2013-03-04 17:13:00,55.4,46.5,30.03,West,279,4.0,5.0,72,0.00,,,0.00,Wunderground v.1.12,2013-03-05 01:13:00,
2013-03-04 17:18:00,55.2,46.7,30.03,NNW,344,3.0,6.0,73,0.00,,,0.00,Wunderground v.1.12,2013-03-05 01:18:00,
2013-03-04 17:23:00,54.9,46.4,30.03,NW,318,3.0,8.0,73,0.00,,,0.00,Wunderground v.1.12,2013-03-05 01:23:00,
2013-03-04 17:28:00,54.5,46.4,30.03,NW,306,4.0,5.0,74,0.00,,,0.00,Wunderground v.1.12,2013-03-05 01:28:00,
2013-03-04 17:33:00,54.2,46.1,30.03,NW,314,3.0,6.0,74,0.00,,,0.00,Wunderground v.1.12,2013-03-05 01:33:00,
2013-03-04 17:38:00,53.7,45.6,30.03,NW,325,2.0,8.0,74,0.00,,,0.00,Wunderground v.1.12,2013-03-05 01:38:00,
2013-03-04 17:43:00,53.3,45.6,30.03,NNE,32,2.0,9.0,75,0.00,,,0.00,Wunderground v.1.12,2013-03-05 01:43:00,
2013-03-04 17:49:00,52.9,45.2,30.03,NNW,335,3.0,7.0,75,0.00,,,0.00,Wunderground v.1.12,2013-03-05 01:49:00,
2013-03-04 17:54:00,52.6,45.2,30.03,NNW,340,3.0,5.0,76,0.00,,,0.00,Wunderground v.1.12,2013-03-05 01:54:00,
2013-03-04 17:59:00,52.2,44.9,30.03,NW,310,4.0,5.0,76,0.00,,,0.00,Wunderground v.1.12,2013-03-05 01:59:00,
2013-03-04 18:04:00,51.9,44.9,30.03,NNW,330,3.0,5.0,77,0.00,,,0.00,Wunderground v.1.12,2013-03-05 02:04:00,
2013-03-04 18:09:00,51.6,45.0,30.03,NW,306,2.0,5.0,78,0.00,,,0.00,Wunderground v.1.12,2013-03-05 02:09:00,
2013-03-04 18:14:00,51.3,44.7,30.03,NNW,336,2.0,5.0,78,0.00,,,0.00,Wunderground v.1.12,2013-03-05 02:14:00,
2013-03-04 18:19:00,51.1,44.5,30.03,NE,53,2.0,3.0,78,0.00,,,0.00,Wunderground v.1.12,2013-03-05 02:19:00,
2013-03-04 18:24:00,50.8,44.2,30.03,NW,318,3.0,5.0,78,0.00,,,0.00,Wunderground v.1.12,2013-03-05 02:24:00,
2013-03-04 18:30:00,50.5,44.2,30.03,NNW,342,4.0,4.0,79,0.00,,,0.00,Wunderground v.1.12,2013-03-05 02:30:00,
2013-03-04 18:35:00,50.3,44.0,30.03,WNW,290,3.0,3.0,79,0.00,,,0.00,Wunderground v.1.12,2013-03-05 02:35:00,
2013-03-04 18:40:00,50.0,43.7,30.03,WNW,297,2.0,3.0,79,0.00,,,0.00,Wunderground v.1.12,2013-03-05 02:40:00,
2013-03-04 18:45:00,49.8,43.5,30.03,NW,311,2.0,2.0,79,0.00,,,0.00,Wunderground v.1.12,2013-03-05 02:45:00,
2013-03-04 18:50:00,49.5,43.6,30.03,WNW,288,1.0,2.0,80,0.00,,,0.00,Wunderground v.1.12,2013-03-05 02:50:00,
2013-03-04 18:55:00,49.3,43.4,30.03,NNE,26,1.0,1.0,80,0.00,,,0.00,Wunderground v.1.12,2013-03-05 02:55:00,
2013-03-04 19:00:00,48.9,43.3,30.03,NW,304,1.0,3.0,81,0.00,,,0.00,Wunderground v.1.12,2013-03-05 03:00:00,
2013-03-04 19:05:00,48.6,43.0,30.03,WNW,297,1.0,1.0,81,0.00,,,0.00,Wunderground v.1.12,2013-03-05 03:05:00,
2013-03-04 19:10:00,48.3,43.1,30.03,NW,321,1.0,1.0,82,0.00,,,0.00,Wunderground v.1.12,2013-03-05 03:10:00,
2013-03-04 19:15:00,47.9,43.0,30.04,NW,304,0.0,1.0,83,0.00,,,0.00,Wunderground v.1.12,2013-03-05 03:15:00,
2013-03-04 19:21:00,47.6,42.7,30.04,WSW,244,2.0,2.0,83,0.00,,,0.00,Wunderground v.1.12,2013-03-05 03:21:00,
2013-03-04 19:26:00,47.4,42.8,30.04,WSW,252,2.0,2.0,84,0.00,,,0.00,Wunderground v.1.12,2013-03-05 03:26:00,
2013-03-04 19:31:00,47.1,42.5,30.04,WSW,249,0.0,1.0,84,0.00,,,0.00,Wunderground v.1.12,2013-03-05 03:31:00,
2013-03-04 19:36:00,46.7,42.1,30.04,WSW,248,0.0,1.0,84,0.00,,,0.00,Wunderground v.1.12,2013-03-05 03:36:00,
2013-03-04 19:41:00,46.4,42.1,30.04,WSW,249,0.0,0.0,85,0.00,,,0.00,Wunderground v.1.12,2013-03-05 03:41:00,
2013-03-04 19:46:00,45.9,41.6,30.05,WSW,249,0.0,0.0,85,0.00,,,0.00,Wunderground v.1.12,2013-03-05 03:46:00,
2013-03-04 19:51:00,45.5,41.6,30.05,WSW,249,0.0,0.0,86,0.00,,,0.00,Wunderground v.1.12,2013-03-05 03:51:00,
2013-03-04 19:56:00,45.3,41.7,30.05,WSW,249,0.0,0.0,87,0.00,,,0.00,Wunderground v.1.12,2013-03-05 03:56:00,
2013-03-04 20:01:00,44.9,41.3,30.04,WSW,249,0.0,0.0,87,0.00,,,0.00,Wunderground v.1.12,2013-03-05 04:01:00,
2013-03-04 20:06:00,44.7,41.4,30.04,WSW,249,0.0,0.0,88,0.00,,,0.00,Wunderground v.1.12,2013-03-05 04:06:00,
2013-03-04 20:11:00,44.5,41.5,30.04,WSW,250,0.0,0.0,89,0.00,,,0.00,Wunderground v.1.12,2013-03-05 04:11:00,
2013-03-04 20:16:00,44.1,40.8,30.04,WSW,249,0.0,0.0,88,0.00,,,0.00,Wunderground v.1.12,2013-03-05 04:16:00,
2013-03-04 20:22:00,43.5,40.5,30.04,WSW,249,0.0,0.0,89,0.00,,,0.00,Wunderground v.1.12,2013-03-05 04:22:00,
2013-03-04 20:27:00,43.3,40.6,30.04,WSW,257,0.0,1.0,90,0.00,,,0.00,Wunderground v.1.12,2013-03-05 04:27:00,
2013-03-04 20:32:00,43.4,40.9,30.04,WSW,257,0.0,1.0,91,0.00,,,0.00,Wunderground v.1.12,2013-03-05 04:32:00,
2013-03-04 20:37:00,43.5,41.0,30.04,NE,49,1.0,2.0,91,0.00,,,0.00,Wunderground v.1.12,2013-03-05 04:37:00,
2013-03-04 20:42:00,43.5,40.8,30.04,NE,49,0.0,1.0,90,0.00,,,0.00,Wunderground v.1.12,2013-03-05 04:42:00,
2013-03-04 20:47:00,43.6,40.9,30.05,NE,50,0.0,2.0,90,0.00,,,0.00,Wunderground v.1.12,2013-03-05 04:47:00,
2013-03-04 20:52:00,43.6,40.9,30.05,NE,50,0.0,1.0,90,0.00,,,0.00,Wunderground v.1.12,2013-03-05 04:52:00,
2013-03-04 20:58:00,43.5,40.8,30.05,NE,51,0.0,1.0,90,0.00,,,0.00,Wunderground v.1.12,2013-03-05 04:58:00,
2013-03-04 21:00:00,43.4,40.7,30.05,NE,51,0.0,0.0,90,0.00,,,0.00,Wunderground v.1.12,2013-03-05 05:00:00,
2013-03-04 21:05:00,43.2,40.5,30.05,NE,51,0.0,0.0,90,0.00,,,0.00,Wunderground v.1.12,2013-03-05 05:05:00,
2013-03-04 21:10:00,43.0,40.6,30.05,NE,51,0.0,0.0,91,0.00,,,0.00,Wunderground v.1.12,2013-03-05 05:10:00,
2013-03-04 21:15:00,42.8,40.4,30.05,NE,51,0.0,0.0,91,0.00,,,0.00,Wunderground v.1.12,2013-03-05 05:15:00,
2013-03-04 21:20:00,42.6,40.2,30.06,NE,51,0.0,0.0,91,0.00,,,0.00,Wunderground v.1.12,2013-03-05 05:20:00,
2013-03-04 21:25:00,42.4,40.0,30.06,NE,51,0.0,0.0,91,0.00,,,0.00,Wunderground v.1.12,2013-03-05 05:25:00,
2013-03-04 21:30:00,42.1,39.7,30.06,NE,51,0.0,0.0,91,0.00,,,0.00,Wunderground v.1.12,2013-03-05 05:30:00,
2013-03-04 21:35:00,41.8,39.4,30.05,NE,51,0.0,0.0,91,0.00,,,0.00,Wunderground v.1.12,2013-03-05 05:35:00,
2013-03-04 21:40:00,41.8,39.6,30.05,NE,51,0.0,0.0,92,0.00,,,0.00,Wunderground v.1.12,2013-03-05 05:40:00,
2013-03-04 21:45:00,42.0,40.1,30.05,NE,51,0.0,0.0,93,0.00,,,0.00,Wunderground v.1.12,2013-03-05 05:45:00,
2013-03-04 21:50:00,41.9,39.7,30.05,NE,51,0.0,1.0,92,0.00,,,0.00,Wunderground v.1.12,2013-03-05 05:50:00,
2013-03-04 21:55:00,41.7,39.5,30.05,NE,51,0.0,0.0,92,0.00,,,0.00,Wunderground v.1.12,2013-03-05 05:55:00,
2013-03-04 22:01:00,41.6,39.4,30.05,NE,51,0.0,0.0,92,0.00,,,0.00,Wunderground v.1.12,2013-03-05 06:01:00,
2013-03-04 22:06:00,41.5,39.6,30.05,NE,51,0.0,0.0,93,0.00,,,0.00,Wunderground v.1.12,2013-03-05 06:06:00,
2013-03-04 22:11:00,41.4,39.5,30.05,NE,51,0.0,0.0,93,0.00,,,0.00,Wunderground v.1.12,2013-03-05 06:11:00,
2013-03-04 22:16:00,41.2,39.1,30.05,NE,51,0.0,0.0,92,0.00,,,0.00,Wunderground v.1.12,2013-03-05 06:16:00,
2013-03-04 22:21:00,41.1,39.2,30.05,NE,51,0.0,0.0,93,0.00,,,0.00,Wunderground v.1.12,2013-03-05 06:21:00,
2013-03-04 22:26:00,40.8,38.9,30.05,NE,51,0.0,0.0,93,0.00,,,0.00,Wunderground v.1.12,2013-03-05 06:26:00,
2013-03-04 22:31:00,40.5,38.6,30.05,NE,51,0.0,0.0,93,0.00,,,0.00,Wunderground v.1.12,2013-03-05 06:31:00,
2013-03-04 22:36:00,40.0,37.9,30.05,NE,51,0.0,0.0,92,0.00,,,0.00,Wunderground v.1.12,2013-03-05 06:36:00,
2013-03-04 22:41:00,39.4,37.3,30.05,NE,51,0.0,0.0,92,0.00,,,0.00,Wunderground v.1.12,2013-03-05 06:41:00,
2013-03-04 22:46:00,39.5,37.9,30.05,NE,51,0.0,0.0,94,0.00,,,0.00,Wunderground v.1.12,2013-03-05 06:46:00,
2013-03-04 22:51:00,39.6,38.0,30.05,NE,51,0.0,0.0,94,0.00,,,0.00,Wunderground v.1.12,2013-03-05 06:51:00,
2013-03-04 22:56:00,39.1,37.2,30.05,NE,51,0.0,0.0,93,0.00,,,0.00,Wunderground v.1.12,2013-03-05 06:56:00,
2013-03-04 23:01:00,38.8,37.2,30.04,NE,51,0.0,0.0,94,0.00,,,0.00,Wunderground v.1.12,2013-03-05 07:01:00,
2013-03-04 23:07:00,38.6,37.0,30.04,NE,51,0.0,0.0,94,0.00,,,0.00,Wunderground v.1.12,2013-03-05 07:07:00,
2013-03-04 23:12:00,38.6,37.3,30.04,NE,51,0.0,0.0,95,0.00,,,0.00,Wunderground v.1.12,2013-03-05 07:12:00,
2013-03-04 23:17:00,38.2,36.6,30.05,NE,51,0.0,0.0,94,0.00,,,0.00,Wunderground v.1.12,2013-03-05 07:17:00,
2013-03-04 23:22:00,37.6,36.0,30.05,NE,51,0.0,0.0,94,0.00,,,0.00,Wunderground v.1.12,2013-03-05 07:22:00,
2013-03-04 23:28:00,37.1,35.5,30.05,NE,51,0.0,0.0,94,0.00,,,0.00,Wunderground v.1.12,2013-03-05 07:28:00,
2013-03-04 23:33:00,38.0,37.0,30.04,NE,51,0.0,0.0,96,0.00,,,0.00,Wunderground v.1.12,2013-03-05 07:33:00,
2013-03-04 23:38:00,38.6,37.6,30.04,NE,51,0.0,0.0,96,0.00,,,0.00,Wunderground v.1.12,2013-03-05 07:38:00,
2013-03-04 23:43:00,38.8,37.8,30.04,NE,51,0.0,0.0,96,0.00,,,0.00,Wunderground v.1.12,2013-03-05 07:43:00,
2013-03-04 23:48:00,38.8,37.8,30.04,NE,51,0.0,0.0,96,0.00,,,0.00,Wunderground v.1.12,2013-03-05 07:48:00,
2013-03-04 23:54:00,38.4,37.4,30.04,NE,51,0.0,0.0,96,0.00,,,0.00,Wunderground v.1.12,2013-03-05 07:54:00,
2013-03-04 23:59:00,38.6,37.6,30.04,NE,51,0.0,0.0,96,0.00,,,0.00,Wunderground v.1.12,2013-03-05 07:59:00,